Time;durP1;ratioP1;P1;durP2;ratioP2;P2;SDS_P1;SDS_P2;PMS_P1;PMS_P2;Temp;Humidity;BMP_temperature;BMP_pressure;BME280_temperature;BME280_humidity;BME280_pressure;Samples;Min_cycle;Max_cycle;Signal;HPM_P1;HPM_P2
2022/12/05 00:01:45;;;;;;;116.30;49.23;;;3.50;1.00;;;;;;6219766;28;20227;-52
2022/12/05 00:04:48;;;;;;;110.73;46.97;;;3.50;1.00;;;;;;6236362;28;20230;-52
2022/12/05 00:07:51;;;;;;;117.33;49.30;;;3.20;1.00;;;;;;6234039;28;20242;-51
2022/12/05 00:10:54;;;;;;;117.83;49.33;;;3.40;1.00;;;;;;6232892;28;20249;-52
2022/12/05 00:14:00;;;;;;;119.03;47.23;;;3.60;1.00;;;;;;6235092;28;20234;-51
2022/12/05 00:17:02;;;;;;;126.97;48.47;;;3.30;1.00;;;;;;6231059;28;20250;-53
2022/12/05 00:20:07;;;;;;;117.43;47.10;;;3.60;1.00;;;;;;6235000;28;20308;-51
2022/12/05 00:23:10;;;;;;;113.07;47.17;;;3.60;1.00;;;;;;6233781;28;20226;-52
2022/12/05 00:26:14;;;;;;;122.67;48.40;;;3.50;1.00;;;;;;6235409;28;20231;-52
2022/12/05 00:29:18;;;;;;;102.43;44.73;;;3.50;1.00;;;;;;6235782;28;20237;-52
2022/12/05 00:32:21;;;;;;;108.47;44.23;;;3.40;1.00;;;;;;6234898;28;20235;-52
2022/12/05 00:35:24;;;;;;;110.27;45.27;;;3.60;1.00;;;;;;6234427;28;20242;-52
2022/12/05 00:38:27;;;;;;;116.23;48.23;;;3.60;1.00;;;;;;6234020;28;20238;-51
2022/12/05 00:41:30;;;;;;;107.17;44.90;;;3.70;1.00;;;;;;6234688;28;20242;-52
2022/12/05 00:44:35;;;;;;;118.57;48.07;;;3.40;1.00;;;;;;6234027;28;20506;-52
2022/12/05 00:47:38;;;;;;;112.17;46.47;;;3.70;1.00;;;;;;6234230;28;20231;-52
2022/12/05 00:50:41;;;;;;;113.17;47.40;;;3.80;1.00;;;;;;6229242;28;20231;-55
2022/12/05 00:53:45;;;;;;;103.20;46.47;;;3.50;1.00;;;;;;6229059;28;20231;-52
2022/12/05 00:56:51;;;;;;;106.40;45.77;;;3.40;1.00;;;;;;6234641;28;20233;-51
2022/12/05 00:59:55;;;;;;;112.27;47.50;;;3.50;1.00;;;;;;6224234;28;20235;-53
2022/12/05 01:02:58;;;;;;;111.03;48.30;;;3.50;1.00;;;;;;6238895;28;20253;-53
2022/12/05 01:06:02;;;;;;;98.33;45.20;;;3.40;1.00;;;;;;6235305;28;20239;-51
2022/12/05 01:09:06;;;;;;;108.93;46.70;;;3.90;1.00;;;;;;6232717;28;20611;-53
2022/12/05 01:12:09;;;;;;;94.80;44.70;;;3.60;1.00;;;;;;6240007;28;20226;-51
2022/12/05 01:15:14;;;;;;;115.23;46.23;;;3.70;1.00;;;;;;6225775;28;20250;-52
2022/12/05 01:18:17;;;;;;;113.53;48.13;;;3.60;1.00;;;;;;6225328;28;20242;-53
2022/12/05 01:21:21;;;;;;;113.37;47.60;;;3.70;1.00;;;;;;6235564;28;20250;-53
2022/12/05 01:24:25;;;;;;;109.67;48.73;;;3.90;1.00;;;;;;6219660;28;20610;-52
2022/12/05 01:27:28;;;;;;;114.60;49.93;;;3.70;1.00;;;;;;6227118;28;20552;-53
2022/12/05 01:30:33;;;;;;;114.80;48.77;;;3.70;1.00;;;;;;6235538;28;20245;-52
2022/12/05 01:33:36;;;;;;;100.37;46.37;;;3.70;1.00;;;;;;6233751;28;20230;-52
2022/12/05 01:36:39;;;;;;;108.00;48.23;;;3.60;1.00;;;;;;6226397;28;20635;-53
2022/12/05 01:39:42;;;;;;;113.00;47.70;;;3.60;1.00;;;;;;6235155;28;20613;-52
2022/12/05 01:42:45;;;;;;;115.73;48.20;;;3.50;1.00;;;;;;6229629;28;20312;-51
2022/12/05 01:45:49;;;;;;;113.00;46.63;;;3.60;1.00;;;;;;6232370;28;20234;-54
2022/12/05 01:48:58;;;;;;;110.13;46.77;;;3.60;1.00;;;;;;6238949;28;20239;-52
2022/12/05 01:52:04;;;;;;;116.27;49.20;;;3.70;1.00;;;;;;6232699;28;20614;-56
2022/12/05 01:55:12;;;;;;;110.30;47.40;;;3.60;1.00;;;;;;6233796;28;20454;-52
2022/12/05 01:58:16;;;;;;;114.33;46.80;;;3.70;1.00;;;;;;6238594;28;20647;-58
2022/12/05 02:01:20;;;;;;;112.50;49.10;;;3.70;1.00;;;;;;6230350;28;20238;-53
2022/12/05 02:04:23;;;;;;;121.77;49.57;;;3.80;1.00;;;;;;6230550;28;20253;-51
2022/12/05 02:07:27;;;;;;;116.47;48.97;;;3.70;1.00;;;;;;6235458;28;20247;-53
2022/12/05 02:10:34;;;;;;;115.53;48.07;;;3.70;1.00;;;;;;6241042;28;20249;-52
2022/12/05 02:13:53;;;;;;;104.23;45.50;;;3.70;1.00;;;;;;6239567;28;20246;-52
2022/12/05 02:17:05;;;;;;;112.07;46.53;;;3.60;1.00;;;;;;6233978;28;20270;-53
2022/12/05 02:20:36;;;;;;;110.90;47.13;;;3.60;1.00;;;;;;6238416;28;20759;-52
2022/12/05 02:23:59;;;;;;;112.40;46.50;;;3.40;1.00;;;;;;6214767;28;20231;-52
2022/12/05 02:27:20;;;;;;;120.33;47.47;;;3.40;1.00;;;;;;6213817;28;20617;-52
2022/12/05 02:30:26;;;;;;;107.57;45.17;;;3.60;1.00;;;;;;6206469;28;20578;-47
2022/12/05 02:33:36;;;;;;;117.40;46.40;;;3.80;1.00;;;;;;6213667;28;20244;-52
2022/12/05 02:36:44;;;;;;;116.50;48.83;;;3.60;1.00;;;;;;6207500;28;20243;-52
2022/12/05 02:39:54;;;;;;;108.50;45.77;;;3.70;1.00;;;;;;6214153;28;20240;-52
2022/12/05 02:43:02;;;;;;;113.07;45.53;;;3.50;1.00;;;;;;6219082;28;20246;-52
2022/12/05 02:46:11;;;;;;;122.57;47.13;;;3.50;1.00;;;;;;6234364;28;20881;-52
2022/12/05 02:49:19;;;;;;;117.70;46.97;;;3.70;1.00;;;;;;6213809;28;20578;-52
2022/12/05 02:52:24;;;;;;;109.87;45.57;;;3.70;1.00;;;;;;6212050;28;20243;-52
2022/12/05 02:55:30;;;;;;;116.23;45.93;;;3.60;1.00;;;;;;6210939;28;20303;-52
2022/12/05 02:58:36;;;;;;;116.03;45.57;;;3.60;1.00;;;;;;6211889;28;20826;-53
2022/12/05 03:01:43;;;;;;;106.47;45.50;;;3.60;1.00;;;;;;6208387;28;20598;-53
2022/12/05 03:04:46;;;;;;;107.43;44.87;;;3.80;1.00;;;;;;6223296;28;20228;-52
2022/12/05 03:07:52;;;;;;;103.30;43.87;;;3.70;1.00;;;;;;6236633;28;20265;-50
2022/12/05 03:10:58;;;;;;;105.23;45.47;;;3.50;1.00;;;;;;6232905;28;20279;-54
2022/12/05 03:14:06;;;;;;;109.03;45.27;;;3.40;1.00;;;;;;6236959;28;20627;-52
2022/12/05 03:17:15;;;;;;;95.73;42.23;;;3.70;1.00;;;;;;6238075;28;20231;-54
2022/12/05 03:20:23;;;;;;;93.37;41.90;;;3.70;1.00;;;;;;6232102;28;20250;-52
2022/12/05 03:23:30;;;;;;;94.23;41.47;;;3.60;1.00;;;;;;6227893;28;20492;-53
2022/12/05 03:26:44;;;;;;;96.57;41.53;;;3.60;1.00;;;;;;6249013;28;20623;-52
2022/12/05 03:29:53;;;;;;;89.30;40.97;;;3.60;1.00;;;;;;6237642;28;20241;-53
2022/12/05 03:33:05;;;;;;;90.87;40.33;;;3.70;1.00;;;;;;6238877;28;20246;-51
2022/12/05 03:36:14;;;;;;;83.67;38.43;;;3.40;1.00;;;;;;6240366;28;20294;-48
2022/12/05 03:39:23;;;;;;;80.40;38.37;;;3.70;1.00;;;;;;6230313;28;20589;-52
2022/12/05 03:42:31;;;;;;;73.87;38.23;;;3.50;1.00;;;;;;6241546;28;20887;-52
2022/12/05 03:45:38;;;;;;;73.07;37.07;;;3.60;1.00;;;;;;6234779;28;20231;-52
2022/12/05 03:48:50;;;;;;;87.53;38.23;;;3.90;1.00;;;;;;6251060;28;20323;-52
2022/12/05 03:51:57;;;;;;;82.00;36.93;;;3.80;1.00;;;;;;6242772;28;20237;-50
2022/12/05 03:55:04;;;;;;;85.40;39.30;;;3.90;1.00;;;;;;6228248;28;20255;-52
2022/12/05 03:58:10;;;;;;;79.10;37.83;;;3.60;1.00;;;;;;6242409;28;20827;-52
2022/12/05 04:01:14;;;;;;;76.47;36.77;;;3.70;1.00;;;;;;6229901;28;20244;-52
2022/12/05 04:04:22;;;;;;;72.07;37.13;;;3.60;1.00;;;;;;6245156;28;20286;-52
2022/12/05 04:07:28;;;;;;;78.23;38.53;;;3.80;1.00;;;;;;6242041;28;20242;-52
2022/12/05 04:10:47;;;;;;;79.77;37.43;;;3.60;1.00;;;;;;6224033;28;20255;-51
2022/12/05 04:13:54;;;;;;;81.03;39.37;;;3.90;1.00;;;;;;6217841;28;20620;-53
2022/12/05 04:17:07;;;;;;;71.77;36.23;;;3.60;1.00;;;;;;6204069;28;20243;-52
2022/12/05 04:23:36;;;;;;;74.07;37.40;;;3.90;1.00;;;;;;6203130;28;20236;-52
2022/12/05 04:26:45;;;;;;;77.70;37.27;;;3.80;1.00;;;;;;6208022;28;20238;-52
2022/12/05 04:29:57;;;;;;;67.03;36.40;;;3.40;1.00;;;;;;6225860;28;20226;-51
2022/12/05 04:33:04;;;;;;;76.00;38.33;;;3.50;1.00;;;;;;6215100;28;20291;-53
2022/12/05 04:36:14;;;;;;;76.30;37.83;;;3.50;1.00;;;;;;6233316;28;20239;-53
2022/12/05 04:39:22;;;;;;;70.80;34.77;;;3.70;1.00;;;;;;6236172;28;20226;-53
2022/12/05 04:42:28;;;;;;;76.40;34.80;;;3.60;1.00;;;;;;6230832;28;20233;-50
2022/12/05 04:45:34;;;;;;;66.70;34.67;;;3.50;1.00;;;;;;6234140;28;20234;-52
2022/12/05 04:48:40;;;;;;;68.13;35.23;;;3.50;1.00;;;;;;6234706;28;20243;-52
2022/12/05 04:51:45;;;;;;;67.20;34.73;;;3.60;1.00;;;;;;6231280;28;20245;-52
2022/12/05 04:54:51;;;;;;;65.87;34.03;;;3.80;1.00;;;;;;6227204;28;20239;-51
2022/12/05 04:58:01;;;;;;;74.07;35.63;;;3.60;1.00;;;;;;6232093;28;20242;-51
2022/12/05 05:01:10;;;;;;;63.60;32.37;;;3.90;1.00;;;;;;6242099;28;20238;-57
2022/12/05 05:04:17;;;;;;;69.30;34.17;;;3.70;1.00;;;;;;6234274;28;20234;-53
2022/12/05 05:07:21;;;;;;;62.43;32.90;;;3.60;1.00;;;;;;6235731;28;20787;-52
2022/12/05 05:10:32;;;;;;;56.63;32.00;;;3.80;1.00;;;;;;6238862;28;20249;-54
2022/12/05 05:13:36;;;;;;;61.43;31.00;;;3.70;1.00;;;;;;6231412;28;20318;-52
2022/12/05 05:16:41;;;;;;;59.13;33.93;;;3.70;1.00;;;;;;6235213;28;20248;-53
2022/12/05 05:19:44;;;;;;;59.57;31.23;;;3.50;1.00;;;;;;6233899;28;20720;-52
2022/12/05 05:22:49;;;;;;;58.97;30.60;;;3.50;1.00;;;;;;6228900;28;20234;-52
2022/12/05 05:25:53;;;;;;;59.37;32.93;;;3.70;1.00;;;;;;6239812;28;20253;-52
2022/12/05 05:28:57;;;;;;;58.17;30.60;;;3.80;1.00;;;;;;6236113;28;20246;-50
2022/12/05 05:32:00;;;;;;;48.43;28.03;;;3.90;1.00;;;;;;6243480;28;20250;-51
2022/12/05 05:35:03;;;;;;;49.00;30.83;;;3.70;1.00;;;;;;6239315;28;20614;-52
2022/12/05 05:38:08;;;;;;;50.30;28.50;;;3.70;1.00;;;;;;6235651;28;20743;-52
2022/12/05 05:41:13;;;;;;;50.67;27.80;;;3.70;1.00;;;;;;6242542;28;20238;-53
2022/12/05 05:44:16;;;;;;;44.57;26.93;;;3.70;1.00;;;;;;6237642;28;20241;-52
2022/12/05 05:47:19;;;;;;;43.67;26.83;;;3.60;1.00;;;;;;6246189;28;20721;-52
2022/12/05 05:50:22;;;;;;;41.13;26.10;;;3.80;1.00;;;;;;6240131;28;20238;-53
2022/12/05 05:53:27;;;;;;;36.83;24.07;;;3.70;1.00;;;;;;6230441;28;20242;-54
2022/12/05 05:56:30;;;;;;;37.10;24.47;;;3.70;1.00;;;;;;6242485;28;20241;-53
2022/12/05 05:59:33;;;;;;;36.57;24.03;;;3.70;1.00;;;;;;6238594;28;20377;-51
2022/12/05 06:02:36;;;;;;;36.93;24.10;;;3.80;1.00;;;;;;6235710;28;20231;-53
2022/12/05 06:05:40;;;;;;;37.77;23.70;;;3.70;1.00;;;;;;6244444;28;20238;-52
2022/12/05 06:08:45;;;;;;;32.43;22.80;;;3.80;1.00;;;;;;6229867;28;20246;-52
2022/12/05 06:11:48;;;;;;;34.90;22.33;;;3.70;1.00;;;;;;6235230;28;20641;-55
2022/12/05 06:14:51;;;;;;;33.47;22.37;;;3.80;1.00;;;;;;6237215;28;20238;-51
2022/12/05 06:17:54;;;;;;;32.77;21.90;;;3.80;1.00;;;;;;6235586;28;20617;-51
2022/12/05 06:20:58;;;;;;;32.70;22.23;;;3.80;1.00;;;;;;6243440;28;20250;-50
2022/12/05 06:24:02;;;;;;;30.80;21.00;;;3.90;1.00;;;;;;6230261;28;20359;-51
2022/12/05 06:27:05;;;;;;;33.27;21.63;;;3.60;1.00;;;;;;6239606;28;20245;-50
2022/12/05 06:30:09;;;;;;;32.70;22.07;;;3.80;1.00;;;;;;6230326;28;20875;-49
2022/12/05 06:33:12;;;;;;;31.80;21.97;;;3.80;1.00;;;;;;6234018;28;20237;-50
2022/12/05 06:36:17;;;;;;;29.83;21.80;;;3.90;1.00;;;;;;6238586;28;20237;-50
2022/12/05 06:39:22;;;;;;;31.20;21.63;;;3.90;1.00;;;;;;6235129;28;20250;-49
2022/12/05 06:42:25;;;;;;;29.73;20.93;;;3.70;1.00;;;;;;6244044;28;20249;-50
2022/12/05 06:45:28;;;;;;;30.23;21.70;;;3.80;1.00;;;;;;6235925;28;20240;-49
2022/12/05 06:48:31;;;;;;;35.10;22.33;;;3.80;1.00;;;;;;6239552;28;20235;-50
2022/12/05 06:51:34;;;;;;;31.83;22.53;;;3.90;1.00;;;;;;6235581;28;20239;-50
2022/12/05 06:54:38;;;;;;;32.97;23.07;;;3.70;1.00;;;;;;6238291;28;20231;-51
2022/12/05 06:57:41;;;;;;;35.27;23.50;;;3.60;1.00;;;;;;6236713;28;20775;-50
2022/12/05 07:04:06;;;;;;;31.37;20.90;;;3.80;1.00;;;;;;6232469;28;20310;-50
2022/12/05 07:07:09;;;;;;;29.07;21.60;;;3.70;1.00;;;;;;6224366;28;20757;-49
2022/12/05 07:10:13;;;;;;;33.60;23.40;;;3.90;1.00;;;;;;6235517;28;20238;-51
2022/12/05 07:13:18;;;;;;;37.23;22.87;;;3.80;1.00;;;;;;6235781;28;20409;-51
2022/12/05 07:16:21;;;;;;;35.60;23.50;;;3.70;1.00;;;;;;6235794;28;20474;-51
2022/12/05 07:19:24;;;;;;;32.07;23.13;;;3.60;1.00;;;;;;6230207;28;20245;-52
2022/12/05 07:22:27;;;;;;;33.77;22.53;;;3.90;1.00;;;;;;6231364;28;20230;-51
2022/12/05 07:25:31;;;;;;;31.50;22.30;;;3.70;1.00;;;;;;6236576;28;20759;-52
2022/12/05 07:28:34;;;;;;;35.47;22.93;;;3.90;1.00;;;;;;6234388;28;20610;-50
2022/12/05 07:31:37;;;;;;;32.90;21.43;;;3.80;1.00;;;;;;6234523;28;20238;-51
2022/12/05 07:34:41;;;;;;;29.90;21.83;;;3.90;1.00;;;;;;6236997;28;20316;-59
2022/12/05 07:37:44;;;;;;;33.77;22.73;;;3.70;1.00;;;;;;6235327;28;20453;-51
2022/12/05 07:40:48;;;;;;;33.60;22.20;;;3.90;1.00;;;;;;6239505;28;20238;-51
2022/12/05 07:43:51;;;;;;;32.37;22.10;;;3.90;1.00;;;;;;6231580;28;20241;-52
2022/12/05 07:46:54;;;;;;;28.33;21.60;;;3.90;1.00;;;;;;6241468;28;20635;-52
2022/12/05 07:49:57;;;;;;;35.63;21.60;;;4.00;1.00;;;;;;6240213;28;20238;-52
2022/12/05 07:53:00;;;;;;;33.37;20.37;;;3.90;1.00;;;;;;6233940;28;20245;-50
2022/12/05 07:56:07;;;;;;;27.33;20.03;;;3.80;1.00;;;;;;6231508;28;20234;-51
2022/12/05 07:59:10;;;;;;;28.73;20.73;;;3.90;1.00;;;;;;6236156;28;20756;-49
2022/12/05 08:02:13;;;;;;;27.60;21.70;;;3.90;1.00;;;;;;6231501;28;20592;-52
2022/12/05 08:05:16;;;;;;;26.80;20.07;;;3.90;1.00;;;;;;6238700;28;20396;-51
2022/12/05 08:08:19;;;;;;;29.07;20.20;;;3.90;1.00;;;;;;6232577;28;20234;-51
2022/12/05 08:11:25;;;;;;;28.00;20.23;;;3.80;1.00;;;;;;6236205;28;20673;-51
2022/12/05 08:14:28;;;;;;;28.30;20.47;;;3.90;1.00;;;;;;6233800;28;20239;-51
2022/12/05 08:17:32;;;;;;;26.80;20.53;;;3.80;1.00;;;;;;6234423;28;20238;-52
2022/12/05 08:20:35;;;;;;;30.83;21.10;;;4.00;1.00;;;;;;6233066;28;20245;-51
2022/12/05 08:23:39;;;;;;;29.13;20.57;;;4.00;1.00;;;;;;6231721;28;20242;-52
2022/12/05 08:26:44;;;;;;;29.57;20.87;;;3.90;1.00;;;;;;6235303;28;20235;-50
2022/12/05 08:29:47;;;;;;;27.63;20.60;;;3.70;1.00;;;;;;6235361;28;20891;-52
2022/12/05 08:32:50;;;;;;;29.97;20.73;;;3.80;1.00;;;;;;6232692;28;20242;-51
2022/12/05 08:35:53;;;;;;;32.57;21.63;;;4.00;1.00;;;;;;6228410;28;20226;-52
2022/12/05 08:38:57;;;;;;;31.80;21.43;;;4.10;1.00;;;;;;6237001;28;20242;-51
2022/12/05 08:42:01;;;;;;;30.13;21.80;;;4.00;1.00;;;;;;6242540;28;20249;-52
2022/12/05 08:45:04;;;;;;;29.63;21.00;;;3.70;1.00;;;;;;6234188;28;20744;-51
2022/12/05 08:48:07;;;;;;;27.77;21.73;;;3.90;1.00;;;;;;6234016;28;20253;-51
2022/12/05 08:51:12;;;;;;;31.60;21.57;;;3.70;1.00;;;;;;6236060;28;20249;-52
2022/12/05 08:54:16;;;;;;;33.70;21.70;;;3.80;1.00;;;;;;6230974;28;20714;-51
2022/12/05 08:57:20;;;;;;;29.03;21.80;;;4.00;1.00;;;;;;6224804;28;20238;-60
2022/12/05 09:00:23;;;;;;;29.30;21.67;;;3.90;1.00;;;;;;6230495;28;20233;-53
2022/12/05 09:03:26;;;;;;;29.80;21.50;;;4.00;1.00;;;;;;6236779;28;20246;-51
2022/12/05 09:06:29;;;;;;;30.77;21.53;;;3.90;1.00;;;;;;6234913;28;20626;-52
2022/12/05 09:09:32;;;;;;;33.30;21.50;;;3.90;1.00;;;;;;6235493;28;20384;-52
2022/12/05 09:12:37;;;;;;;26.33;19.27;;;4.00;1.00;;;;;;6234702;28;20241;-53
2022/12/05 09:15:40;;;;;;;25.63;19.37;;;4.00;1.00;;;;;;6238004;28;20261;-51
2022/12/05 09:18:43;;;;;;;26.33;19.77;;;3.90;1.00;;;;;;6244647;28;20241;-52
2022/12/05 09:21:46;;;;;;;27.63;18.67;;;3.80;1.00;;;;;;6236958;28;20242;-55
2022/12/05 09:24:50;;;;;;;27.27;18.73;;;4.10;1.00;;;;;;6226210;28;20231;-52
2022/12/05 09:27:55;;;;;;;25.53;18.83;;;3.80;1.00;;;;;;6226056;28;20235;-52
2022/12/05 09:31:00;;;;;;;22.60;18.60;;;3.90;1.00;;;;;;6237524;28;20250;-54
2022/12/05 09:34:05;;;;;;;23.97;18.77;;;3.90;1.00;;;;;;6235507;28;20354;-52
2022/12/05 09:37:08;;;;;;;26.17;19.93;;;3.80;1.00;;;;;;6232431;28;20239;-57
2022/12/05 09:40:31;;;;;;;24.57;17.80;;;4.20;1.00;;;;;;6218970;28;20227;-50
2022/12/05 09:43:44;;;;;;;25.57;18.90;;;4.20;1.00;;;;;;6210613;28;20240;-52
2022/12/05 09:46:55;;;;;;;26.93;19.20;;;3.90;1.00;;;;;;6206896;28;20239;-54
2022/12/05 09:50:01;;;;;;;25.80;18.43;;;3.80;1.00;;;;;;6215090;28;20286;-51
2022/12/05 09:53:10;;;;;;;24.17;18.77;;;4.10;1.00;;;;;;6207139;28;20240;-52
2022/12/05 09:56:21;;;;;;;28.63;18.70;;;4.20;1.00;;;;;;6209569;28;20749;-52
2022/12/05 09:59:25;;;;;;;24.90;19.20;;;4.10;1.00;;;;;;6210196;28;20238;-53
2022/12/05 10:02:39;;;;;;;26.73;18.90;;;4.00;1.00;;;;;;6208605;28;20689;-52
2022/12/05 10:05:50;;;;;;;25.07;18.80;;;4.10;1.00;;;;;;6219030;28;20315;-52
2022/12/05 10:09:13;;;;;;;26.00;19.53;;;4.20;1.00;;;;;;6214292;28;20238;-52
2022/12/05 10:12:30;;;;;;;22.77;17.73;;;4.20;1.00;;;;;;6218924;28;20231;-51
2022/12/05 10:15:38;;;;;;;25.03;19.27;;;4.10;1.00;;;;;;6205710;28;20403;-54
2022/12/05 10:18:45;;;;;;;25.87;18.23;;;4.00;1.00;;;;;;6217101;28;20764;-53
2022/12/05 10:21:53;;;;;;;29.70;19.70;;;4.10;1.00;;;;;;6213655;28;20657;-53
2022/12/05 10:25:00;;;;;;;24.33;18.60;;;4.00;1.00;;;;;;6211666;28;20262;-52
2022/12/05 10:28:11;;;;;;;22.30;17.70;;;4.00;1.00;;;;;;6211334;28;20246;-54
2022/12/05 10:31:20;;;;;;;24.33;19.27;;;4.20;1.00;;;;;;6211696;28;20232;-53
2022/12/05 10:34:29;;;;;;;23.77;18.13;;;4.20;1.00;;;;;;6217894;28;20311;-52
2022/12/05 10:37:32;;;;;;;24.00;19.23;;;3.90;1.00;;;;;;6236666;28;20484;-53
2022/12/05 10:40:38;;;;;;;25.53;19.07;;;4.20;1.00;;;;;;6233999;28;20235;-51
2022/12/05 10:43:43;;;;;;;27.40;19.50;;;4.00;1.00;;;;;;6236272;28;20393;-53
2022/12/05 10:46:48;;;;;;;22.93;18.70;;;4.20;1.00;;;;;;6237590;28;20628;-53
2022/12/05 10:49:54;;;;;;;27.63;20.50;;;4.30;1.00;;;;;;6237827;28;20238;-52
2022/12/05 10:52:59;;;;;;;25.80;19.93;;;4.10;1.00;;;;;;6231384;28;20427;-53
2022/12/05 10:56:02;;;;;;;27.57;20.23;;;4.00;1.00;;;;;;6236395;28;20238;-52
2022/12/05 10:59:26;;;;;;;24.40;18.87;;;4.00;1.00;;;;;;6236581;28;20698;-51
2022/12/05 11:02:33;;;;;;;22.03;18.53;;;4.00;1.00;;;;;;6237992;28;20265;-53
2022/12/05 11:05:36;;;;;;;24.70;20.30;;;4.10;1.00;;;;;;6234894;28;20231;-53
2022/12/05 11:08:39;;;;;;;23.83;18.93;;;4.20;1.00;;;;;;6236655;28;20626;-53
2022/12/05 11:12:21;;;;;;;27.07;18.90;;;4.10;1.00;;;;;;6236786;28;20242;-53
2022/12/05 11:15:26;;;;;;;24.00;18.53;;;4.00;1.00;;;;;;6232474;28;20230;-54
2022/12/05 11:18:33;;;;;;;23.67;18.73;;;4.20;1.00;;;;;;6231659;28;20773;-52
2022/12/05 11:21:42;;;;;;;25.20;19.60;;;4.10;1.00;;;;;;6239585;28;20237;-51
2022/12/05 11:24:45;;;;;;;27.83;20.47;;;4.10;1.00;;;;;;6232481;28;20227;-53
2022/12/05 11:27:48;;;;;;;29.13;20.70;;;4.20;1.00;;;;;;6236552;28;20242;-54
2022/12/05 11:30:57;;;;;;;29.37;20.67;;;4.30;1.00;;;;;;6235679;28;20266;-53
2022/12/05 11:34:10;;;;;;;26.67;20.37;;;4.40;1.00;;;;;;6235869;28;20622;-53
2022/12/05 11:37:18;;;;;;;26.37;20.53;;;4.10;1.00;;;;;;6233293;28;20226;-53
2022/12/05 11:40:35;;;;;;;28.20;20.53;;;4.20;1.00;;;;;;6232811;28;20689;-53
2022/12/05 11:44:09;;;;;;;30.33;20.13;;;4.20;1.00;;;;;;6235917;28;20245;-53
2022/12/05 11:47:22;;;;;;;30.53;21.23;;;4.20;1.00;;;;;;6213643;28;20690;-53
2022/12/05 11:50:40;;;;;;;30.60;22.40;;;4.30;1.00;;;;;;6207514;28;20231;-56
2022/12/05 11:54:18;;;;;;;31.63;21.83;;;4.20;1.00;;;;;;6210592;28;20400;-53
2022/12/05 11:58:12;;;;;;;28.50;21.57;;;4.10;1.00;;;;;;6204635;28;20267;-55
2022/12/05 12:01:26;;;;;;;25.83;20.77;;;4.10;1.00;;;;;;6178953;28;20627;-53
2022/12/05 12:04:41;;;;;;;28.23;20.57;;;4.20;1.00;;;;;;6235375;28;20651;-55
2022/12/05 12:07:59;;;;;;;30.90;21.73;;;4.20;1.00;;;;;;6227244;28;20261;-52
2022/12/05 12:11:11;;;;;;;33.43;23.33;;;4.40;1.00;;;;;;6241249;28;20269;-53
2022/12/05 12:14:24;;;;;;;32.87;22.43;;;4.10;1.00;;;;;;6234931;28;20230;-51
2022/12/05 12:17:35;;;;;;;31.63;22.20;;;4.40;1.00;;;;;;6234817;28;20245;-53
2022/12/05 12:20:49;;;;;;;35.13;23.67;;;4.20;1.00;;;;;;6236016;28;20230;-59
2022/12/05 12:24:04;;;;;;;32.70;23.67;;;4.40;1.00;;;;;;6232724;28;20234;-53
2022/12/05 12:27:16;;;;;;;39.30;22.87;;;4.30;1.00;;;;;;6210659;28;20646;-53
2022/12/05 12:30:21;;;;;;;35.67;22.93;;;4.30;1.00;;;;;;6236324;28;20242;-53
2022/12/05 12:33:32;;;;;;;33.73;23.43;;;4.30;1.00;;;;;;6229841;28;20227;-53
2022/12/05 12:36:38;;;;;;;34.40;23.33;;;4.40;1.00;;;;;;6227117;28;20470;-52
2022/12/05 12:39:52;;;;;;;33.70;22.60;;;4.40;1.00;;;;;;6236472;28;20231;-53
2022/12/05 12:43:06;;;;;;;36.50;24.63;;;4.20;1.00;;;;;;6238292;28;20496;-58
2022/12/05 12:46:18;;;;;;;36.40;23.67;;;4.20;1.00;;;;;;6231636;28;20369;-52
2022/12/05 12:49:35;;;;;;;35.73;23.87;;;4.20;1.00;;;;;;6239154;28;20242;-53
2022/12/05 12:53:02;;;;;;;37.33;23.93;;;4.30;1.00;;;;;;6226561;28;20236;-53
2022/12/05 12:56:17;;;;;;;41.73;25.07;;;4.20;1.00;;;;;;6233787;28;20413;-53
2022/12/05 12:59:45;;;;;;;42.53;26.40;;;4.10;1.00;;;;;;6236954;28;20234;-54
2022/12/05 13:02:53;;;;;;;42.20;25.87;;;4.10;1.00;;;;;;6225554;28;20235;-53
2022/12/05 13:06:03;;;;;;;48.10;27.40;;;4.10;1.00;;;;;;6226807;28;20400;-52
2022/12/05 13:09:11;;;;;;;46.07;26.93;;;4.30;1.00;;;;;;6232738;28;20250;-53
2022/12/05 13:12:21;;;;;;;46.63;28.20;;;4.30;1.00;;;;;;6237336;28;20260;-54
2022/12/05 13:15:32;;;;;;;46.33;27.67;;;4.20;1.00;;;;;;6238445;28;20729;-53
2022/12/05 13:18:35;;;;;;;46.10;27.77;;;4.50;1.00;;;;;;6217145;28;20244;-53
2022/12/05 13:21:38;;;;;;;43.50;27.90;;;4.20;1.00;;;;;;6208506;28;20235;-53
2022/12/05 13:24:42;;;;;;;51.37;29.37;;;4.50;1.00;;;;;;6214326;28;20721;-54
2022/12/05 13:27:57;;;;;;;49.13;28.87;;;4.40;1.00;;;;;;6211133;28;20404;-52
2022/12/05 13:31:03;;;;;;;55.10;31.23;;;4.40;1.00;;;;;;6210676;28;20255;-53
2022/12/05 13:34:26;;;;;;;54.17;29.77;;;4.20;1.00;;;;;;6231600;28;20377;-56
2022/12/05 13:44:26;;;;;;;46.77;27.10;;;4.20;1.00;;;;;;6228567;28;20239;-53
2022/12/05 13:47:33;;;;;;;54.90;28.80;;;4.50;1.00;;;;;;6231974;28;20250;-52
2022/12/05 13:50:43;;;;;;;48.43;29.90;;;4.50;1.00;;;;;;6240559;28;20242;-53
2022/12/05 13:53:49;;;;;;;55.50;30.50;;;4.50;1.00;;;;;;6233653;28;20241;-53
2022/12/05 13:56:54;;;;;;;53.93;28.37;;;4.40;1.00;;;;;;6239915;28;20241;-53
2022/12/05 14:00:03;;;;;;;55.60;31.87;;;4.40;1.00;;;;;;6231990;28;20616;-54
2022/12/05 14:03:16;;;;;;;70.87;33.00;;;4.60;1.00;;;;;;6240769;28;20763;-54
2022/12/05 14:06:56;;;;;;;58.73;33.27;;;4.40;1.00;;;;;;6235452;28;20238;-53
2022/12/05 14:09:59;;;;;;;60.50;32.63;;;4.30;1.00;;;;;;6204742;28;20232;-53
2022/12/05 14:13:24;;;;;;;54.97;31.17;;;4.30;1.00;;;;;;6217105;28;20235;-52
2022/12/05 14:16:49;;;;;;;58.27;31.87;;;4.20;1.00;;;;;;6211753;28;20322;-54
2022/12/05 14:20:06;;;;;;;57.37;30.30;;;4.20;1.00;;;;;;6215976;28;20235;-53
2022/12/05 14:23:23;;;;;;;64.50;33.40;;;4.40;1.00;;;;;;6215116;28;20990;-51
2022/12/05 14:26:47;;;;;;;63.27;32.93;;;4.20;1.00;;;;;;6213769;28;20807;-52
2022/12/05 14:30:02;;;;;;;72.27;34.17;;;4.40;1.00;;;;;;6239790;28;20686;-53
2022/12/05 14:33:16;;;;;;;68.70;32.07;;;4.20;1.00;;;;;;6233702;28;20265;-53
2022/12/05 14:36:29;;;;;;;62.90;33.00;;;4.30;1.00;;;;;;6233698;28;20605;-54
2022/12/05 14:39:42;;;;;;;66.37;34.40;;;4.30;1.00;;;;;;6230986;28;20223;-52
2022/12/05 14:42:52;;;;;;;79.47;33.77;;;4.30;1.00;;;;;;6241009;28;20227;-53
2022/12/05 14:46:00;;;;;;;73.27;34.63;;;4.20;1.00;;;;;;6208866;28;20407;-52
2022/12/05 14:49:35;;;;;;;69.67;35.50;;;4.50;1.00;;;;;;6213195;28;20250;-53
2022/12/05 14:52:43;;;;;;;66.63;33.07;;;4.20;1.00;;;;;;6211853;28;20313;-52
2022/12/05 14:55:47;;;;;;;76.77;35.07;;;4.50;1.00;;;;;;6210956;28;20241;-56
2022/12/05 14:58:55;;;;;;;65.47;32.33;;;4.50;1.00;;;;;;6214786;28;20247;-52
2022/12/05 15:02:00;;;;;;;80.23;37.60;;;4.30;1.00;;;;;;6203968;28;20232;-53
2022/12/05 15:05:20;;;;;;;71.93;36.83;;;4.20;1.00;;;;;;6215377;28;20243;-54
2022/12/05 15:08:24;;;;;;;73.83;34.60;;;4.60;1.00;;;;;;6205673;28;20241;-54
2022/12/05 15:11:30;;;;;;;75.60;36.23;;;4.30;1.00;;;;;;6210860;28;20282;-52
2022/12/05 15:14:42;;;;;;;69.50;35.60;;;4.30;1.00;;;;;;6210356;28;20230;-52
2022/12/05 15:17:48;;;;;;;66.90;35.23;;;4.40;1.00;;;;;;6215657;28;20235;-54
2022/12/05 15:20:59;;;;;;;65.47;32.57;;;4.30;1.00;;;;;;6210745;28;20243;-53
2022/12/05 15:24:03;;;;;;;82.40;37.87;;;4.50;1.00;;;;;;6212920;28;20258;-53
2022/12/05 15:27:11;;;;;;;91.43;37.57;;;4.50;1.00;;;;;;6214931;28;20366;-52
2022/12/05 15:30:16;;;;;;;74.13;35.47;;;4.50;1.00;;;;;;6204964;28;20242;-52
2022/12/05 15:33:19;;;;;;;83.53;36.93;;;4.50;1.00;;;;;;6211336;28;20390;-53
2022/12/05 15:36:29;;;;;;;71.77;35.20;;;4.50;1.00;;;;;;6215893;28;20243;-54
2022/12/05 15:39:51;;;;;;;88.40;38.70;;;4.50;1.00;;;;;;6201244;28;20232;-52
2022/12/05 15:42:56;;;;;;;85.40;36.00;;;4.40;1.00;;;;;;6215255;28;20665;-52
2022/12/05 15:46:22;;;;;;;74.50;34.73;;;4.40;1.00;;;;;;6208932;28;20414;-54
2022/12/05 15:49:28;;;;;;;96.77;38.97;;;4.40;1.00;;;;;;6208923;28;20754;-55
2022/12/05 15:52:40;;;;;;;77.27;36.70;;;4.60;1.00;;;;;;6207899;28;20240;-52
2022/12/05 15:55:47;;;;;;;86.17;37.43;;;4.30;1.00;;;;;;6208664;28;20253;-50
2022/12/05 15:58:54;;;;;;;85.03;36.87;;;4.40;1.00;;;;;;6215434;28;20258;-52
2022/12/05 16:02:02;;;;;;;87.97;38.00;;;4.40;1.00;;;;;;6204930;28;20795;-52
2022/12/05 16:05:06;;;;;;;100.73;38.83;;;4.20;1.00;;;;;;6222645;28;20267;-52
2022/12/05 16:08:10;;;;;;;99.47;37.53;;;4.30;1.00;;;;;;6214808;28;20235;-52
2022/12/05 16:11:14;;;;;;;89.17;37.97;;;4.40;1.00;;;;;;6218282;28;20247;-52
2022/12/05 16:14:18;;;;;;;77.73;34.53;;;4.30;1.00;;;;;;6208999;28;20262;-53
2022/12/05 16:17:45;;;;;;;96.70;38.23;;;4.50;1.00;;;;;;6212479;28;20246;-60
2022/12/05 16:20:48;;;;;;;68.10;32.83;;;4.40;1.00;;;;;;6212654;28;20749;-52
2022/12/05 16:24:00;;;;;;;80.90;37.80;;;4.50;1.00;;;;;;6207895;28;20235;-52
2022/12/05 16:27:13;;;;;;;79.63;35.17;;;4.30;1.00;;;;;;6204237;28;20240;-52
2022/12/05 16:30:21;;;;;;;75.83;34.47;;;4.40;1.00;;;;;;6204980;28;20242;-53